Time;durP1;ratioP1;P1;durP2;ratioP2;P2;SDS_P1;SDS_P2;PMS_P1;PMS_P2;Temp;Humidity;BMP_temperature;BMP_pressure;BME280_temperature;BME280_humidity;BME280_pressure;Samples;Min_cycle;Max_cycle;Signal;HPM_P1;HPM_P2
2021/11/17 02:28:21;;;;;;;57.37;36.27;;;;;;;-1.92;83.53;101069.14;1669672;85;21568;-78
2021/11/17 02:31:10;;;;;;;57.63;36.47;;;;;;;-2.04;83.64;101069.73;1673062;84;21081;-77
2021/11/17 02:34:09;;;;;;;53.80;37.53;;;;;;;-2.18;84.06;101071.91;1681694;84;21063;-78
2021/11/17 02:37:03;;;;;;;66.60;39.77;;;;;;;-2.26;84.36;101072.59;1679143;84;21557;-77
2021/11/17 02:39:51;;;;;;;63.25;35.95;;;;;;;-2.27;84.57;101064.33;1663679;83;21161;-77
2021/11/17 02:42:32;;;;;;;64.20;37.50;;;;;;;-2.29;84.59;101057.86;1676334;85;21572;-76
2021/11/17 02:45:09;;;;;;;64.47;40.47;;;;;;;-2.33;84.70;101068.32;1712851;82;20942;-75
2021/11/17 02:47:59;;;;;;;60.67;41.23;;;;;;;-2.36;84.96;101068.59;1687393;83;21071;-75
2021/11/17 02:50:38;;;;;;;56.30;35.23;;;;;;;-2.43;85.24;101070.08;1709923;84;21035;-75
2021/11/17 02:53:23;;;;;;;56.63;35.57;;;;;;;-2.53;85.70;101066.57;1680318;83;21019;-76
2021/11/17 02:56:28;;;;;;;55.63;35.40;;;;;;;-2.59;86.17;101067.12;1681292;84;20954;-79
2021/11/17 02:59:20;;;;;;;46.67;33.00;;;;;;;-2.59;86.20;101062.33;1710166;84;21027;-79
2021/11/17 03:02:15;;;;;;;58.70;38.03;;;;;;;-2.60;86.34;101060.66;1701396;82;21045;-79
2021/11/17 03:05:02;;;;;;;56.53;35.63;;;;;;;-2.57;86.36;101059.06;1710761;83;21081;-79
2021/11/17 03:07:50;;;;;;;63.10;36.70;;;;;;;-2.53;86.50;101064.41;1682405;84;21552;-79
2021/11/17 03:10:51;;;;;;;61.87;40.63;;;;;;;-2.50;86.52;101064.17;1701625;84;21590;-79
2021/11/17 03:13:24;;;;;;;53.43;36.97;;;;;;;-2.35;86.60;101053.12;1703079;84;21403;-78
2021/11/17 03:16:01;;;;;;;56.73;36.13;;;;;;;-2.14;86.40;101055.69;1679509;84;21039;-79
2021/11/17 03:18:57;;;;;;;57.53;37.80;;;;;;;-2.03;86.18;101058.22;1678940;84;21039;-79
2021/11/17 03:21:41;;;;;;;55.23;35.27;;;;;;;-1.93;85.74;101055.13;1677663;85;21000;-77
2021/11/17 03:24:47;;;;;;;72.17;40.90;;;;;;;-1.89;85.39;101051.73;1646686;84;21088;-79
2021/11/17 03:27:49;;;;;;;65.60;39.67;;;;;;;-1.84;85.08;101052.16;1710076;84;20979;-77
2021/11/17 03:30:33;;;;;;;52.97;35.97;;;;;;;-1.79;84.77;101048.62;1675993;84;21031;-80
2021/11/17 03:33:25;;;;;;;47.73;32.37;;;;;;;-1.71;84.53;101044.80;1630689;85;21048;-78
2021/11/17 03:36:18;;;;;;;51.23;32.40;;;;;;;-1.69;84.11;101045.52;1681225;85;21147;-83
2021/11/17 03:39:00;;;;;;;;;;;;;;;-1.75;83.60;101051.33;1712329;82;20989;-82
2021/11/17 03:41:35;;;;;;;72.90;38.40;;;;;;;-1.76;83.52;101047.02;1681372;84;20114;-82
2021/11/17 03:44:13;;;;;;;54.00;35.43;;;;;;;-1.73;83.36;101050.72;1683323;83;20960;-83
2021/11/17 03:46:54;;;;;;;58.07;38.17;;;;;;;-1.67;83.16;101057.22;1712497;82;21018;-75
2021/11/17 03:49:46;;;;;;;53.03;36.77;;;;;;;-1.66;82.89;101049.19;1737906;82;21126;-78
2021/11/17 03:52:18;;;;;;;48.33;31.37;;;;;;;-1.68;82.50;101048.98;1702833;84;21027;-80
2021/11/17 03:55:04;;;;;;;53.43;30.87;;;;;;;-1.72;82.49;101043.61;1709403;84;21015;-80
2021/11/17 03:58:12;;;;;;;50.90;33.00;;;;;;;-1.69;82.44;101048.15;1733682;81;20983;-80
2021/11/17 04:01:15;;;;;;;48.03;32.53;;;;;;;-1.63;82.22;101048.09;1739161;81;21575;-77
2021/11/17 04:04:22;;;;;;;42.40;27.10;;;;;;;-1.70;81.63;101037.73;1759354;81;21205;-77
2021/11/17 04:07:21;;;;;;;58.93;35.93;;;;;;;-1.70;81.63;101037.73;1694560;82;21055;-78
2021/11/17 04:10:20;;;;;;;68.90;41.00;;;;;;;-1.71;81.32;101041.33;1715262;82;20982;-78
2021/11/17 04:13:21;;;;;;;74.87;44.37;;;;;;;-1.72;80.96;101043.61;1742025;82;21014;-79
2021/11/17 04:16:09;;;;;;;64.53;43.30;;;;;;;-1.72;80.67;101036.53;1717815;81;21044;-77
2021/11/17 04:18:57;;;;;;;62.17;37.03;;;;;;;-1.70;80.58;101034.61;1740913;81;21304;-79
2021/11/17 04:21:51;;;;;;;44.37;30.23;;;;;;;-1.62;80.35;101041.81;1689456;83;21559;-79
2021/11/17 04:24:54;;;;;;;57.17;34.20;;;;;;;-1.58;79.98;101036.13;1730187;82;21602;-79
2021/11/17 04:27:29;;;;;;;55.73;34.23;;;;;;;-1.68;79.41;101035.80;1741971;82;21500;-81
2021/11/17 04:30:08;;;;;;;73.30;39.33;;;;;;;-1.88;79.32;101035.78;1718156;82;21029;-79
2021/11/17 04:33:04;;;;;;;48.30;32.20;;;;;;;-1.96;79.40;101038.25;1718451;82;21208;-77
2021/11/17 04:35:51;;;;;;;57.87;32.63;;;;;;;-1.89;79.82;101030.63;1762757;81;20994;-80
2021/11/17 04:38:35;;;;;;;50.30;34.97;;;;;;;-1.88;79.84;101032.30;1762701;81;20979;-78
2021/11/17 04:41:12;;;;;;;53.80;32.60;;;;;;;-1.91;79.97;101026.80;1730089;82;21040;-78
2021/11/17 04:43:57;;;;;;;46.90;30.50;;;;;;;-1.90;79.94;101029.80;1717261;82;21133;-78
2021/11/17 04:46:43;;;;;;;45.03;29.27;;;;;;;-1.88;80.02;101021.28;1713561;82;21215;-77
2021/11/17 04:49:42;;;;;;;43.23;27.27;;;;;;;-1.84;80.10;101025.78;1710560;82;20968;-78
2021/11/17 04:52:31;;;;;;;73.07;45.50;;;;;;;-1.83;80.17;101019.55;1685401;84;21045;-78
2021/11/17 04:55:09;;;;;;;55.57;33.80;;;;;;;-1.83;80.07;101024.34;1711311;82;21020;-80
2021/11/17 04:58:02;;;;;;;46.57;28.37;;;;;;;-1.79;80.04;101019.13;1657469;85;21068;-78
2021/11/17 05:00:40;;;;;;;44.55;28.10;;;;;;;-1.75;79.85;101017.05;1687373;82;21305;-77
2021/11/17 05:03:12;;;;;;;70.43;36.47;;;;;;;-1.80;79.64;101011.35;1736352;82;21620;-77
2021/11/17 05:05:49;;;;;;;98.43;50.07;;;;;;;-1.90;79.52;101012.66;1735965;82;21153;-78
2021/11/17 05:08:24;;;;;;;91.23;55.30;;;;;;;-1.88;79.48;101013.85;1707256;82;21528;-75
2021/11/17 05:11:20;;;;;;;74.63;44.00;;;;;;;-1.89;79.11;101018.29;1707208;84;21028;-73
2021/11/17 05:14:07;;;;;;;109.83;57.30;;;;;;;-1.91;78.83;101014.94;1720942;82;21231;-74
2021/11/17 05:16:45;;;;;;;70.73;36.17;;;;;;;-2.00;78.88;101014.92;1692337;82;21577;-74
2021/11/17 05:19:35;;;;;;;99.60;57.03;;;;;;;-2.00;79.14;101010.98;1678082;85;21032;-76
2021/11/17 05:22:20;;;;;;;52.83;31.83;;;;;;;-1.97;78.98;101016.00;1649377;84;21039;-76
2021/11/17 05:25:15;;;;;;;67.33;44.33;;;;;;;-1.92;79.06;101017.22;1729617;82;20960;-75
2021/11/17 05:28:11;;;;;;;46.10;27.93;;;;;;;-1.91;79.00;101017.58;1713018;82;21194;-76
2021/11/17 05:31:05;;;;;;;62.33;34.30;;;;;;;-1.86;79.09;101008.77;1678260;85;21591;-76
2021/11/17 05:33:42;;;;;;;55.88;32.95;;;;;;;-1.85;79.16;101011.77;1718464;82;20993;-76
2021/11/17 05:36:24;;;;;;;42.60;27.77;;;;;;;-1.95;78.99;101011.40;1732637;82;21005;-76
2021/11/17 05:39:17;;;;;;;45.27;27.83;;;;;;;-2.01;79.28;101018.05;1715976;82;21557;-77
2021/11/17 05:41:55;;;;;;;44.90;27.98;;;;;;;-2.13;79.48;101014.36;1706913;84;21287;-75
2021/11/17 05:44:41;;;;;;;45.37;31.67;;;;;;;-2.28;79.95;101012.59;1707651;82;21108;-78
2021/11/17 05:47:16;;;;;;;57.40;30.73;;;;;;;-2.29;80.42;101018.82;1736375;82;21683;-79
2021/11/17 05:49:57;;;;;;;43.87;29.57;;;;;;;-2.16;80.67;101012.00;1734264;82;20945;-79
2021/11/17 05:52:38;;;;;;;45.13;30.07;;;;;;;-2.11;80.52;101016.39;1657109;85;21536;-77
2021/11/17 05:55:33;;;;;;;41.50;26.57;;;;;;;-2.06;80.61;101014.18;1725115;82;21556;-75
2021/11/17 05:58:10;;;;;;;47.37;30.57;;;;;;;-2.05;80.47;101010.55;1736645;82;21558;-75
2021/11/17 06:00:49;;;;;;;49.63;30.27;;;;;;;-2.16;80.43;101006.25;1736567;82;21585;-77
2021/11/17 06:03:33;;;;;;;46.20;31.07;;;;;;;-2.18;80.75;101011.30;1693361;84;21551;-76
2021/11/17 06:05:59;;;;;;;51.40;33.40;;;;;;;-2.17;80.76;101019.55;1685379;84;21061;-76
2021/11/17 06:08:25;;;;;;;45.73;31.50;;;;;;;-2.14;80.96;101007.41;1684681;84;26712;-78
2021/11/17 06:10:56;;;;;;;52.37;35.27;;;;;;;-2.11;80.89;101007.97;1706240;84;25682;-76
2021/11/17 06:13:23;;;;;;;43.93;30.30;;;;;;;-2.12;80.87;101010.28;1712521;82;20992;-75
2021/11/17 06:15:49;;;;;;;40.13;26.87;;;;;;;-2.15;80.91;100999.16;1713591;82;21595;-75
2021/11/17 06:18:21;;;;;;;47.20;27.83;;;;;;;-2.21;81.02;101005.31;1736915;82;21016;-75
2021/11/17 06:20:47;;;;;;;42.77;28.10;;;;;;;-2.28;81.29;101001.56;1732454;82;21209;-75
2021/11/17 06:23:29;;;;;;;38.50;27.03;;;;;;;-2.34;81.62;101006.53;1694541;82;21032;-77
2021/11/17 06:25:56;;;;;;;37.78;23.27;;;;;;;-2.30;81.84;100999.54;1736728;82;21024;-75
2021/11/17 06:28:26;;;;;;;37.00;24.10;;;;;;;-2.23;81.98;101002.00;1736689;82;21086;-75
2021/11/17 06:30:52;;;;;;;46.23;29.03;;;;;;;-2.17;81.97;101006.37;1712544;82;22216;-75
2021/11/17 06:33:18;;;;;;;46.73;26.30;;;;;;;-2.15;81.99;101005.26;1698103;82;21151;-75
2021/11/17 06:35:45;;;;;;;40.23;25.03;;;;;;;-2.13;82.07;100998.55;1678478;85;21536;-76
2021/11/17 06:38:11;;;;;;;40.03;25.97;;;;;;;-2.12;82.06;100997.58;1684814;84;21151;-73
2021/11/17 06:40:42;;;;;;;39.47;23.70;;;;;;;-2.11;82.05;101003.21;1706901;84;21073;-75
2021/11/17 06:43:09;;;;;;;43.13;27.77;;;;;;;-2.04;82.16;101001.68;1710389;82;21037;-74
2021/11/17 06:45:41;;;;;;;46.23;26.17;;;;;;;-1.95;82.20;100997.73;1713370;82;21067;-78
2021/11/17 06:48:09;;;;;;;39.63;26.47;;;;;;;-1.84;82.00;101000.73;1702621;83;20960;-79
2021/11/17 06:50:36;;;;;;;43.43;25.63;;;;;;;-1.81;81.70;100997.81;1697074;84;21065;-77
2021/11/17 06:53:05;;;;;;;47.90;23.87;;;;;;;-1.75;81.70;100999.91;1725470;83;20989;-77
2021/11/17 06:55:33;;;;;;;38.27;22.23;;;;;;;-1.69;81.62;100990.61;1724737;83;20906;-74
2021/11/17 06:57:59;;;;;;;32.77;21.90;;;;;;;-1.62;81.44;100989.90;1680311;84;21241;-75
2021/11/17 07:00:29;;;;;;;35.67;24.73;;;;;;;-1.62;81.27;100987.27;1702677;84;21035;-75
2021/11/17 07:02:57;;;;;;;41.50;29.20;;;;;;;-1.58;81.30;100997.07;1680573;84;21553;-76
2021/11/17 07:05:23;;;;;;;35.40;24.90;;;;;;;-1.52;81.31;100991.22;1702705;84;21552;-76
2021/11/17 07:07:54;;;;;;;45.20;27.53;;;;;;;-1.48;81.08;100995.23;1702731;83;21087;-76
2021/11/17 07:10:20;;;;;;;34.53;23.60;;;;;;;-1.47;81.06;100996.42;1723247;83;21582;-78
2021/11/17 07:12:46;;;;;;;31.67;22.33;;;;;;;-1.53;80.98;100996.97;1707692;84;21537;-77
2021/11/17 07:15:14;;;;;;;37.77;25.13;;;;;;;-1.62;81.09;101006.21;1690919;84;21055;-78
2021/11/17 07:17:40;;;;;;;39.83;23.33;;;;;;;-1.68;81.47;101008.95;1699990;83;21072;-77
2021/11/17 07:20:09;;;;;;;44.47;26.50;;;;;;;-1.65;82.04;100998.59;1705832;84;21591;-77
2021/11/17 07:22:36;;;;;;;35.93;21.87;;;;;;;-1.55;82.53;100999.42;1705637;84;21061;-77
2021/11/17 07:25:05;;;;;;;40.20;21.23;;;;;;;-1.45;82.52;100995.81;1676133;85;21508;-76
2021/11/17 07:27:32;;;;;;;35.60;24.87;;;;;;;-1.41;82.63;100994.55;1702752;84;21648;-79
2021/11/17 07:29:58;;;;;;;39.07;24.83;;;;;;;-1.36;82.37;100996.28;1657085;84;21099;-77
2021/11/17 07:32:26;;;;;;;38.27;21.30;;;;;;;-1.33;81.98;100997.79;1703303;84;21597;-78
2021/11/17 07:34:53;;;;;;;32.03;22.13;;;;;;;-1.32;81.76;101000.30;1726000;83;21112;-75
2021/11/17 07:37:19;;;;;;;38.57;24.27;;;;;;;-1.34;81.75;101003.55;1679401;85;20968;-75
2021/11/17 07:39:45;;;;;;;35.97;22.90;;;;;;;-1.31;81.89;101001.13;1706283;82;21527;-75
2021/11/17 07:42:13;;;;;;;38.97;24.97;;;;;;;-1.24;81.85;100998.74;1683220;84;21012;-77
2021/11/17 07:44:41;;;;;;;34.03;22.07;;;;;;;-1.16;81.87;100997.56;1705714;84;21011;-82
2021/11/17 07:47:08;;;;;;;34.90;21.60;;;;;;;-1.05;81.72;100995.58;1690427;83;21154;-81
2021/11/17 07:49:35;;;;;;;32.80;21.47;;;;;;;-0.98;81.50;100999.81;1687218;83;21014;-80
2021/11/17 07:52:02;;;;;;;34.40;20.07;;;;;;;-0.97;81.24;100994.39;1690493;83;21626;-80
2021/11/17 07:54:29;;;;;;;29.83;19.63;;;;;;;-0.89;81.20;100991.86;1691002;83;21105;-79
2021/11/17 07:56:55;;;;;;;44.90;28.47;;;;;;;-0.88;80.87;100996.66;1714510;83;21070;-76
2021/11/17 07:59:24;;;;;;;36.43;21.83;;;;;;;-0.87;80.93;100997.00;1714021;83;21472;-78
2021/11/17 08:01:53;;;;;;;48.47;26.33;;;;;;;-0.78;80.80;100993.98;1704008;83;21562;-81
2021/11/17 08:04:21;;;;;;;39.20;25.13;;;;;;;-0.73;80.60;100999.17;1714352;82;21111;-82
2021/11/17 08:06:48;;;;;;;31.60;22.77;;;;;;;-0.68;80.47;100999.58;1713161;83;21164;-80
2021/11/17 08:09:17;;;;;;;43.33;23.13;;;;;;;-0.56;80.48;101000.20;1687210;83;21551;-77
2021/11/17 08:11:43;;;;;;;29.87;20.10;;;;;;;-0.47;80.11;100992.72;1714196;82;21151;-81
2021/11/17 08:14:10;;;;;;;35.67;21.90;;;;;;;-0.38;79.81;100998.95;1713871;83;20979;-80
2021/11/17 08:16:37;;;;;;;44.97;28.03;;;;;;;-0.34;79.46;101001.64;1685824;83;21641;-76
2021/11/17 08:19:04;;;;;;;41.10;25.57;;;;;;;-0.29;79.36;100997.58;1711720;83;21105;-76
2021/11/17 08:21:31;;;;;;;43.27;24.63;;;;;;;-0.26;79.17;101001.23;1685644;83;21046;-79
2021/11/17 08:23:57;;;;;;;54.90;31.23;;;;;;;-0.22;79.21;101005.73;1712519;83;21267;-83
2021/11/17 08:26:24;;;;;;;58.23;35.07;;;;;;;-0.22;78.84;100999.96;1687361;83;21070;-77
2021/11/17 08:28:50;;;;;;;29.67;19.83;;;;;;;-0.17;78.93;101000.84;1712578;83;21046;-77
2021/11/17 08:31:17;;;;;;;31.67;21.53;;;;;;;-0.06;78.86;101002.80;1682182;85;21676;-75
2021/11/17 08:33:44;;;;;;;30.97;19.60;;;;;;;0.07;78.61;101001.58;1712538;83;21114;-76
2021/11/17 08:36:11;;;;;;;41.47;21.77;;;;;;;0.13;78.30;100995.22;1686310;83;21106;-76
2021/11/17 08:38:38;;;;;;;27.00;19.53;;;;;;;0.16;78.02;101000.19;1675197;83;21051;-76
2021/11/17 08:41:08;;;;;;;27.67;19.93;;;;;;;0.27;78.08;100999.98;1713032;82;21715;-76
2021/11/17 08:43:34;;;;;;;22.80;15.83;;;;;;;0.34;77.94;101003.67;1688170;83;21606;-75
2021/11/17 08:46:03;;;;;;;28.57;17.93;;;;;;;0.43;77.45;100993.48;1686524;82;20965;-75
2021/11/17 08:48:32;;;;;;;27.83;16.40;;;;;;;0.55;77.27;100994.59;1735223;82;21187;-74
2021/11/17 08:51:00;;;;;;;39.00;18.90;;;;;;;0.67;76.64;100992.05;1734560;81;20961;-75
2021/11/17 08:53:31;;;;;;;28.43;17.50;;;;;;;0.74;76.54;100993.08;1734536;81;21012;-75
2021/11/17 08:55:56;;;;;;;19.00;13.50;;;;;;;0.81;75.81;100986.20;1735693;81;21012;-75
2021/11/17 08:58:23;;;;;;;21.47;15.13;;;;;;;0.81;75.66;100981.73;1743081;81;21063;-74
2021/11/17 09:00:50;;;;;;;31.10;16.73;;;;;;;0.82;74.68;100975.42;1736686;81;21285;-74
2021/11/17 09:03:17;;;;;;;23.17;15.33;;;;;;;0.85;74.99;100976.46;1735725;81;21053;-74
2021/11/17 09:05:48;;;;;;;22.57;14.50;;;;;;;0.93;74.49;100976.99;1736344;81;20979;-76
2021/11/17 09:08:14;;;;;;;19.63;14.63;;;;;;;0.90;73.64;100973.34;1748778;81;21015;-78
2021/11/17 09:10:45;;;;;;;19.23;14.27;;;;;;;0.92;73.73;100973.16;1738972;81;21114;-75
2021/11/17 09:13:11;;;;;;;18.37;13.50;;;;;;;0.98;73.75;100969.41;1683858;84;21615;-78
2021/11/17 09:15:40;;;;;;;30.63;16.87;;;;;;;0.99;73.38;100967.11;1736005;82;21508;-79
2021/11/17 09:18:07;;;;;;;22.80;14.93;;;;;;;0.97;73.31;100958.96;1713136;82;20998;-76
2021/11/17 09:20:34;;;;;;;30.97;16.03;;;;;;;1.01;73.56;100953.72;1738264;82;21069;-82
2021/11/17 09:23:01;;;;;;;20.87;15.13;;;;;;;1.11;73.19;100954.41;1738374;82;21064;-81
2021/11/17 09:25:28;;;;;;;25.03;15.97;;;;;;;1.14;72.68;100948.81;1738368;82;21117;-78
2021/11/17 09:27:54;;;;;;;22.77;14.20;;;;;;;1.18;72.73;100944.36;1713780;81;21033;-76
2021/11/17 09:30:25;;;;;;;24.47;15.53;;;;;;;1.24;72.50;100941.58;1714405;82;21023;-78
2021/11/17 09:32:53;;;;;;;19.57;14.37;;;;;;;1.35;72.60;100937.78;1720943;81;21012;-77
2021/11/17 09:35:20;;;;;;;24.03;12.77;;;;;;;1.51;71.88;100933.39;1742517;80;21560;-77
2021/11/17 09:37:48;;;;;;;21.80;13.87;;;;;;;1.62;70.66;100933.59;1712769;82;21030;-80
2021/11/17 09:40:19;;;;;;;23.98;16.37;;;;;;;1.65;69.66;100928.79;1717664;82;21594;-78
2021/11/17 09:42:45;;;;;;;29.48;15.48;;;;;;;1.62;69.67;100922.98;1748235;81;21577;-76
2021/11/17 09:45:12;;;;;;;23.73;18.03;;;;;;;1.61;70.00;100924.80;1735630;81;20995;-78
2021/11/17 09:47:39;;;;;;;19.50;13.93;;;;;;;1.60;69.67;100930.26;1691648;84;21211;-78
2021/11/17 09:50:20;;;;;;;17.42;12.98;;;;;;;1.61;68.59;100920.00;1710170;84;21780;-80
2021/11/17 09:52:52;;;;;;;19.07;14.73;;;;;;;1.63;69.12;100921.48;1721049;82;21004;-80
2021/11/17 09:55:45;;;;;;;19.05;13.95;;;;;;;1.65;68.71;100906.25;1710455;82;21518;-82
2021/11/17 09:58:19;;;;;;;17.77;14.35;;;;;;;1.61;68.90;100906.24;1703762;83;21093;-78
2021/11/17 10:00:51;;;;;;;21.45;13.72;;;;;;;1.67;69.02;100906.09;1683619;82;21043;-83
2021/11/17 10:03:31;;;;;;;18.57;12.50;;;;;;;1.72;68.96;100907.28;1703275;82;21090;-82
2021/11/17 10:14:38;;;;;;;20.15;13.85;;;;;;;1.95;67.10;100892.05;1667637;83;20969;-78
2021/11/17 10:17:03;;;;;;;21.30;13.55;;;;;;;1.95;67.44;100893.38;1634456;85;21058;-79
2021/11/17 10:19:33;;;;;;;20.68;13.53;;;;;;;2.00;67.22;100889.23;1646375;82;21032;-78
2021/11/17 10:22:07;;;;;;;15.05;11.18;;;;;;;2.06;66.93;100895.71;1684613;83;21039;-78
2021/11/17 10:24:50;;;;;;;21.07;13.53;;;;;;;2.15;67.01;100896.04;1715021;82;21084;-78
2021/11/17 10:27:27;;;;;;;26.00;13.72;;;;;;;2.19;66.93;100887.58;1710426;84;21067;-80
2021/11/17 10:29:59;;;;;;;20.52;15.45;;;;;;;2.22;67.02;100886.41;1710433;82;21108;-79
2021/11/17 10:32:37;;;;;;;22.10;13.90;;;;;;;2.24;67.15;100883.09;1676568;84;21036;-86
2021/11/17 10:35:12;;;;;;;17.60;13.98;;;;;;;2.26;67.24;100885.56;1709771;83;21005;-91
2021/11/17 10:37:43;;;;;;;20.88;15.30;;;;;;;2.34;66.75;100883.77;1736529;82;21011;-85
2021/11/17 10:40:21;;;;;;;22.60;13.90;;;;;;;2.38;66.48;100878.44;1698201;83;21064;-88
2021/11/17 10:43:07;;;;;;;19.02;13.30;;;;;;;2.40;66.20;100874.30;1700416;82;21129;-88
2021/11/17 10:45:45;;;;;;;22.05;14.70;;;;;;;2.48;66.39;100868.47;1721680;82;20973;-89
2021/11/17 10:48:28;;;;;;;19.25;13.20;;;;;;;2.55;65.54;100872.59;1688812;83;21044;-88
2021/11/17 10:51:19;;;;;;;21.00;14.05;;;;;;;2.63;65.76;100861.48;1713611;83;22388;-86
2021/11/17 10:53:51;;;;;;;22.20;14.90;;;;;;;2.76;65.62;100859.61;1713514;83;21071;-78
2021/11/17 10:56:20;;;;;;;20.32;14.73;;;;;;;2.79;64.87;100859.75;1720710;82;21078;-77
2021/11/17 10:58:52;;;;;;;24.67;14.53;;;;;;;2.68;64.43;100849.51;1722086;82;21050;-76
2021/11/17 11:01:26;;;;;;;21.60;14.53;;;;;;;2.65;64.66;100848.01;1686424;84;21050;-76
2021/11/17 11:04:04;;;;;;;24.77;13.43;;;;;;;2.67;64.81;100844.70;1728766;82;21036;-76
2021/11/17 11:06:46;;;;;;;22.98;14.18;;;;;;;2.73;64.75;100840.53;1723452;82;21023;-78
2021/11/17 11:09:28;;;;;;;20.02;15.10;;;;;;;2.82;63.49;100843.48;1711728;83;21690;-77
2021/11/17 11:11:57;;;;;;;20.08;13.80;;;;;;;2.96;62.55;100832.97;1689877;82;21008;-78
2021/11/17 11:14:31;;;;;;;18.25;11.75;;;;;;;3.12;61.70;100837.36;1698972;82;21345;-75
2021/11/17 11:17:24;;;;;;;17.55;12.78;;;;;;;3.23;61.18;100823.70;1697097;82;21060;-78
2021/11/17 11:19:54;;;;;;;19.60;13.43;;;;;;;3.28;60.87;100825.33;1713671;83;21001;-78
2021/11/17 11:22:22;;;;;;;22.93;15.65;;;;;;;3.33;60.08;100825.64;1724282;82;21066;-77
2021/11/17 11:24:54;;;;;;;26.10;14.50;;;;;;;3.31;59.97;100824.17;1710514;82;21039;-77
2021/11/17 11:27:37;;;;;;;17.87;13.62;;;;;;;3.32;60.52;100819.98;1715631;82;21628;-83
2021/11/17 11:30:16;;;;;;;26.33;14.90;;;;;;;3.43;60.50;100819.59;1712074;82;21006;-81
2021/11/17 11:32:45;;;;;;;21.97;14.58;;;;;;;3.48;59.83;100812.42;1717536;82;21054;-77
2021/11/17 11:35:19;;;;;;;21.42;15.18;;;;;;;3.46;59.94;100809.92;1710020;82;40108;-78
2021/11/17 11:37:56;;;;;;;19.40;14.15;;;;;;;3.48;59.81;100817.73;1648375;84;21065;-78
2021/11/17 11:40:31;;;;;;;21.35;14.58;;;;;;;3.49;60.11;100812.75;1702610;84;20984;-75
2021/11/17 11:43:09;;;;;;;24.23;14.63;;;;;;;3.55;60.03;100806.70;1699478;84;21056;-75
2021/11/17 11:45:42;;;;;;;22.62;13.55;;;;;;;3.63;60.09;100813.81;1703072;84;21548;-75
2021/11/17 11:48:27;;;;;;;20.40;13.35;;;;;;;3.64;59.11;100803.01;1662702;85;21246;-75
2021/11/17 11:51:23;;;;;;;22.82;13.38;;;;;;;3.66;58.02;100799.65;1666856;85;21017;-77
2021/11/17 11:54:19;;;;;;;17.75;13.10;;;;;;;3.67;57.10;100797.32;1673602;84;22272;-75
2021/11/17 11:56:55;;;;;;;19.90;13.60;;;;;;;3.65;57.11;100794.50;1668550;85;21057;-71
2021/11/17 11:59:26;;;;;;;22.30;14.90;;;;;;;3.63;57.72;100784.55;1650887;86;21028;-71
2021/11/17 12:02:12;;;;;;;18.67;13.03;;;;;;;3.66;57.91;100783.69;1648751;86;21099;-69
2021/11/17 12:04:55;;;;;;;20.27;14.63;;;;;;;3.65;57.82;100786.02;1659445;85;20970;-71
2021/11/17 12:07:27;;;;;;;24.40;14.07;;;;;;;3.61;57.94;100787.88;1675006;85;21129;-71
2021/11/17 12:10:02;;;;;;;19.92;14.65;;;;;;;3.63;58.30;100780.06;1672839;85;21056;-72
2021/11/17 12:12:33;;;;;;;21.07;13.10;;;;;;;3.68;58.35;100776.87;1659349;85;21101;-70
2021/11/17 12:15:22;;;;;;;17.92;12.53;;;;;;;3.74;58.25;100778.83;1659451;85;21087;-77
2021/11/17 12:17:51;;;;;;;19.62;14.13;;;;;;;3.71;57.83;100769.84;1673299;85;20975;-74
2021/11/17 12:20:26;;;;;;;16.45;12.25;;;;;;;3.71;57.46;100768.02;1654129;86;20990;-72
2021/11/17 12:22:56;;;;;;;20.40;14.05;;;;;;;3.78;56.62;100764.15;1673614;85;21016;-74
2021/11/17 12:25:33;;;;;;;16.70;12.50;;;;;;;3.82;55.99;100770.27;1660659;85;21715;-70
2021/11/17 12:28:07;;;;;;;17.12;12.07;;;;;;;3.84;55.46;100766.90;1676646;85;21536;-77
2021/11/17 12:30:43;;;;;;;15.48;12.18;;;;;;;3.84;55.46;100766.90;1673805;84;20978;-80
2021/11/17 12:33:19;;;;;;;19.02;14.03;;;;;;;3.87;55.60;100768.39;1684394;84;21070;-76
2021/11/17 12:36:12;;;;;;;18.62;13.20;;;;;;;3.89;55.30;100772.52;1662855;85;21024;-74
2021/11/17 12:38:39;;;;;;;20.23;13.93;;;;;;;3.86;55.37;100774.72;1663591;85;21048;-74
2021/11/17 12:41:22;;;;;;;21.40;12.30;;;;;;;3.84;55.32;100767.40;1685349;85;21921;-76
2021/11/17 12:44:26;;;;;;;20.00;13.75;;;;;;;3.87;55.43;100772.38;1658638;85;21048;-75
2021/11/17 12:47:16;;;;;;;23.22;14.18;;;;;;;3.93;55.49;100767.68;1678485;84;21076;-76
2021/11/17 12:50:00;;;;;;;20.95;14.78;;;;;;;4.02;54.82;100760.44;1700009;83;21537;-76
2021/11/17 12:52:40;;;;;;;30.45;15.03;;;;;;;4.01;54.78;100759.61;1695150;83;21116;-74
2021/11/17 12:55:18;;;;;;;18.77;11.75;;;;;;;3.96;54.67;100748.67;1674984;84;21061;-77
2021/11/17 12:57:51;;;;;;;16.27;11.48;;;;;;;3.90;54.60;100752.05;1711547;83;21048;-79
2021/11/17 13:00:32;;;;;;;21.02;14.05;;;;;;;3.78;54.92;100746.36;1699707;83;20976;-77
2021/11/17 13:03:03;;;;;;;20.17;14.68;;;;;;;3.67;55.29;100743.28;1702031;83;21528;-73
2021/11/17 13:05:42;;;;;;;18.20;11.15;;;;;;;3.67;55.29;100743.28;1682777;83;21037;-84
2021/11/17 13:08:12;;;;;;;18.82;14.28;;;;;;;3.60;54.77;100741.83;1672434;84;21092;-77
2021/11/17 13:11:03;;;;;;;20.75;11.83;;;;;;;3.60;54.77;100741.83;1698957;83;21041;-76
2021/11/17 13:13:55;;;;;;;22.37;14.13;;;;;;;3.54;54.87;100747.05;1669240;85;20973;-73
2021/11/17 13:16:39;;;;;;;15.72;12.98;;;;;;;3.45;55.33;100748.42;1643601;85;21124;-72
2021/11/17 13:19:31;;;;;;;17.27;12.63;;;;;;;3.32;55.78;100748.70;1671113;85;21607;-73
2021/11/17 13:22:03;;;;;;;18.30;14.20;;;;;;;3.17;56.23;100750.45;1665496;84;21651;-76
2021/11/17 13:24:38;;;;;;;19.82;13.80;;;;;;;3.13;56.44;100754.47;1662308;83;21045;-76
2021/11/17 13:27:13;;;;;;;20.05;13.43;;;;;;;3.13;56.45;100749.98;1699329;84;21553;-76
2021/11/17 13:29:56;;;;;;;22.82;14.10;;;;;;;3.09;56.26;100746.03;1699595;84;21061;-79
2021/11/17 13:32:37;;;;;;;19.60;15.03;;;;;;;3.04;56.24;100747.89;1708102;83;21537;-74
2021/11/17 13:35:35;;;;;;;21.62;12.05;;;;;;;2.93;56.37;100744.78;1714020;83;21101;-76
2021/11/17 13:38:19;;;;;;;17.15;12.93;;;;;;;2.80;56.59;100747.19;1713279;83;21094;-73
2021/11/17 13:40:52;;;;;;;20.50;12.23;;;;;;;2.69;56.78;100736.44;1676242;84;21570;-77
2021/11/17 13:43:19;;;;;;;;;;;;;;;2.61;57.04;100743.95;1675996;84;21084;-71
2021/11/17 13:45:48;;;;;;;19.45;14.00;;;;;;;2.57;57.29;100737.34;1705169;83;20149;-72
2021/11/17 13:48:17;;;;;;;23.40;15.05;;;;;;;2.50;57.49;100736.84;1704894;83;21345;-71
2021/11/17 13:50:44;;;;;;;16.05;11.55;;;;;;;2.43;57.76;100738.06;1715048;83;21022;-69
2021/11/17 13:53:11;;;;;;;16.82;13.05;;;;;;;2.38;58.01;100738.23;1697551;83;21522;-69
2021/11/17 13:55:46;;;;;;;21.30;13.18;;;;;;;2.29;58.43;100734.79;1722513;83;20962;-77
2021/11/17 13:58:13;;;;;;;27.65;15.88;;;;;;;2.24;58.75;100728.33;1679926;84;21027;-75
2021/11/17 14:00:41;;;;;;;24.75;14.53;;;;;;;2.19;59.03;100730.17;1715470;83;21993;-75
2021/11/17 14:03:08;;;;;;;29.42;15.45;;;;;;;2.14;59.07;100734.66;1718484;83;20966;-76
2021/11/17 14:05:38;;;;;;;30.27;16.37;;;;;;;2.10;58.99;100730.69;1697372;83;22313;-73
2021/11/17 14:08:03;;;;;;;24.27;16.15;;;;;;;2.05;59.07;100737.00;1674812;84;20904;-74
2021/11/17 14:10:32;;;;;;;28.45;13.38;;;;;;;2.03;59.20;100736.33;1655903;84;21025;-72
2021/11/17 14:12:59;;;;;;;26.33;16.02;;;;;;;1.97;59.35;100726.88;1704948;83;21235;-73
2021/11/17 14:15:25;;;;;;;18.75;13.32;;;;;;;1.89;59.48;100734.37;1685971;83;21049;-70
2021/11/17 14:17:52;;;;;;;25.82;14.33;;;;;;;1.84;59.67;100723.92;1722812;83;21054;-73
2021/11/17 14:20:18;;;;;;;24.40;13.53;;;;;;;1.79;59.79;100719.63;1680010;83;21570;-75
2021/11/17 14:22:45;;;;;;;19.35;13.30;;;;;;;1.70;60.04;100708.20;1713548;83;21031;-73
2021/11/17 14:25:16;;;;;;;24.47;15.28;;;;;;;1.60;60.36;100715.00;1712387;83;21966;-75
2021/11/17 14:27:43;;;;;;;20.88;14.30;;;;;;;1.57;60.50;100710.05;1717817;83;20979;-76
2021/11/17 14:30:20;;;;;;;24.77;14.53;;;;;;;1.50;60.72;100705.56;1698090;83;21010;-75
2021/11/17 14:32:49;;;;;;;18.90;14.05;;;;;;;1.46;60.84;100697.12;1722720;83;21587;-76